首页
METAR-TAF:

METAR-TAF

机场 :

戴维斯-蒙森空军基地

图森, 亞利桑那州, 美国

纬度: 32-10N, 经度: 110-53W, 海拔: 824米

当前天气观测

该预报发布于1小时和6分钟前的00:58 UTC
风速12节,风向西转西北
温度 35°C
湿度 30%
气压 1013 hPa
能見度: 16.1公里
阴天层高于18000英尺

METAR: KDMA 220058Z AUTO 29012KT 10SM OVC180 35/15 A2992 RMK AO2 SLP082 T03500148 $

时间: 19:04 (02:04 UTC)

预报

该预报发布于3小时和59分钟前的22:05 UTC
预报有效从21日的 22点(UTC)到 23日的 04点(UTC)
风速9节,风向西转西北
能见度10公里或以上
散云层高于15000英尺
短暂存在
从 21日的 22点(UTC)到 22日的 02点(UTC)
风速12节,风向西北,有时为18节阵风
成为
从 22日的 05点(UTC)到 22日的 06点(UTC)
风速6节,风向南转南东
能见度10公里或以上
少量云层高于15000英尺
成为
从 22日的 16点(UTC)到 22日的 17点(UTC)
风速9节,风向西转西北
能见度10公里或以上
少量云层高于10000英尺
成为
从 22日的 22点(UTC)到 22日的 23点(UTC)
风速12节,风向西北
能见度10公里或以上
散云层高于12000英尺, 积雨云.
附近有雷暴
成为
从 22日的 23点(UTC)到 22日的 24点(UTC)
风速15节,风向多变,有时为25节阵风
能见度10公里或以上
多云层高于10000英尺, 积雨云.
附近有雷暴
短暂存在
从 23日的 00点(UTC)到 23日的 03点(UTC)
风速25节,风向多变,有时为35节阵风
能見度: 6000
雷暴, 小雨

TAF: KDMA 212205Z 2122/2304 30009KT 9999 SCT150 QNH2995INS TEMPO 2122/2202 32012G18KT BECMG 2205/2206 16006KT 9999 FEW150 QNH3002INS BECMG 2216/2217 30009KT 9999 FEW100 QNH2999INS BECMG 2222/2223 32012KT 9999 VCTS SCT120CB QNH3000INS BECMG 2223/2224 VRB15G25KT 9999 VCTS BKN100CB QNH3000INS TEMPO 2300/2303 VRB25G35KT 6000 -TSRA TX40/2122Z TN24/2211Z

超过4000个机场的气象观测和天气预报(METAR&TAF报告)。

可查询的气象台以黄色和红色小点在地图上表示。

将鼠标移到小点上方,可查看气象台名称。

然后点击查看天气观测和预报。

如需切换地图:点击带黑十字的绿色按钮放大地图;点击带横线的绿色按钮缩小地图;或者点击绿色箭头查看邻近地区的地图。


METAR-TAF: